Time;durP1;ratioP1;P1;durP2;ratioP2;P2;SDS_P1;SDS_P2;PMS_P1;PMS_P2;Temp;Humidity;BMP_temperature;BMP_pressure;BME280_temperature;BME280_humidity;BME280_pressure;Samples;Min_cycle;Max_cycle;Signal;HPM_P1;HPM_P2
2022/04/17 00:00:06;;;;;;;25.83;23.30;;;3.10;99.90;;;;;;4970155;28;20116;-75
2022/04/17 00:02:33;;;;;;;24.50;22.48;;;2.90;99.90;;;;;;4986539;28;20524;-75
2022/04/17 00:05:01;;;;;;;24.10;21.77;;;2.80;99.90;;;;;;4986810;28;20133;-75
2022/04/17 00:07:28;;;;;;;24.55;22.33;;;2.90;99.90;;;;;;4970518;28;20046;-75
2022/04/17 00:09:55;;;;;;;24.23;21.98;;;2.70;99.90;;;;;;4970846;28;20050;-75
2022/04/17 00:12:25;;;;;;;23.40;21.05;;;2.60;99.90;;;;;;4987782;28;20498;-75
2022/04/17 00:14:56;;;;;;;24.35;21.75;;;2.50;99.90;;;;;;4987407;28;20046;-75
2022/04/17 00:17:23;;;;;;;23.67;21.70;;;2.30;99.90;;;;;;4954647;28;20054;-75
2022/04/17 00:19:50;;;;;;;24.48;22.30;;;2.20;99.90;;;;;;4971790;28;20174;-75
2022/04/17 00:22:17;;;;;;;24.92;22.75;;;2.20;99.90;;;;;;4971170;28;20054;-75
2022/04/17 00:24:43;;;;;;;26.15;23.63;;;2.20;99.90;;;;;;4986931;28;20100;-75
2022/04/17 00:27:10;;;;;;;24.02;21.88;;;2.40;99.90;;;;;;4978269;28;20049;-74
2022/04/17 00:29:37;;;;;;;24.58;22.33;;;2.40;99.90;;;;;;4969558;28;20124;-75
2022/04/17 00:32:05;;;;;;;24.67;22.20;;;2.50;99.90;;;;;;4968758;28;20073;-75
2022/04/17 00:34:31;;;;;;;25.88;22.90;;;2.50;99.90;;;;;;4969347;28;20076;-75
2022/04/17 00:36:59;;;;;;;26.30;24.00;;;2.50;99.90;;;;;;4969047;28;20088;-75
2022/04/17 00:39:26;;;;;;;26.25;23.63;;;2.50;99.90;;;;;;4968628;28;20053;-75
2022/04/17 00:41:56;;;;;;;26.48;23.65;;;2.50;99.90;;;;;;4968715;28;20055;-75
2022/04/17 00:44:23;;;;;;;24.55;22.20;;;2.40;99.90;;;;;;4952836;28;20054;-75
2022/04/17 00:46:50;;;;;;;25.52;23.23;;;2.20;99.90;;;;;;4952744;28;20135;-75
2022/04/17 00:49:17;;;;;;;25.20;23.00;;;2.10;99.90;;;;;;4969466;28;20062;-75
2022/04/17 00:51:46;;;;;;;26.15;23.73;;;2.10;99.90;;;;;;4968358;28;20182;-75
2022/04/17 00:54:15;;;;;;;25.52;23.13;;;2.00;99.90;;;;;;4966791;28;20149;-75
2022/04/17 00:56:42;;;;;;;24.15;21.95;;;1.80;99.90;;;;;;4956049;28;20665;-75
2022/04/17 00:59:09;;;;;;;25.33;22.88;;;1.70;99.90;;;;;;4982882;28;20687;-75
2022/04/17 01:01:37;;;;;;;25.73;23.02;;;1.60;99.90;;;;;;4982807;28;20077;-75
2022/04/17 01:04:06;;;;;;;26.23;23.83;;;1.40;99.90;;;;;;4983309;28;20050;-75
2022/04/17 01:06:34;;;;;;;25.90;23.33;;;1.40;99.90;;;;;;4958373;28;20463;-75
2022/04/17 01:09:01;;;;;;;25.95;23.30;;;1.30;99.90;;;;;;4966557;28;20050;-75
2022/04/17 01:11:29;;;;;;;25.52;22.55;;;1.20;99.90;;;;;;4966352;28;20058;-75
2022/04/17 01:13:57;;;;;;;26.17;23.50;;;1.10;99.90;;;;;;4967114;28;20136;-75
2022/04/17 01:16:25;;;;;;;28.80;24.00;;;1.00;99.90;;;;;;4983926;28;20105;-75
2022/04/17 01:19:04;;;;;;;27.00;24.15;;;0.90;99.90;;;;;;4966829;28;20527;-76
2022/04/17 01:21:31;;;;;;;25.02;22.48;;;0.80;99.90;;;;;;4966576;28;20412;-75
2022/04/17 01:26:57;;;;;;;;;;;0.90;99.90;;;;;;4967142;28;20050;-75
2022/04/17 01:29:27;;;;;;;24.30;21.85;;;0.90;99.90;;;;;;4976685;28;19957;-75
2022/04/17 01:31:54;;;;;;;24.65;22.10;;;1.00;99.90;;;;;;4950662;28;20417;-75
2022/04/17 01:34:22;;;;;;;23.67;21.27;;;1.20;99.90;;;;;;4967773;28;20053;-75
2022/04/17 01:36:50;;;;;;;23.75;21.15;;;1.40;99.90;;;;;;4984464;28;20042;-75
2022/04/17 01:39:18;;;;;;;30.45;23.38;;;1.40;99.90;;;;;;4961065;28;20049;-75
2022/04/17 01:41:47;;;;;;;23.60;21.23;;;1.20;99.90;;;;;;4966441;28;20085;-75
2022/04/17 01:44:16;;;;;;;24.88;21.27;;;1.30;99.90;;;;;;4980108;28;20529;-75
2022/04/17 01:46:44;;;;;;;24.88;21.88;;;1.30;99.90;;;;;;4950235;28;20046;-75
2022/04/17 01:49:12;;;;;;;25.40;22.90;;;1.30;99.90;;;;;;4967097;28;20089;-75
2022/04/17 01:51:40;;;;;;;25.90;23.40;;;1.20;99.90;;;;;;4966282;28;20540;-75
2022/04/17 01:54:09;;;;;;;26.00;23.45;;;1.00;99.90;;;;;;4951511;28;20124;-75
2022/04/17 01:56:37;;;;;;;24.65;22.05;;;1.20;99.90;;;;;;4954215;28;20042;-75
2022/04/17 01:59:08;;;;;;;24.90;22.23;;;1.30;99.90;;;;;;4962624;28;20050;-75
2022/04/17 02:01:37;;;;;;;25.52;23.00;;;1.10;99.90;;;;;;4962916;28;20409;-75
2022/04/17 02:04:06;;;;;;;29.98;24.27;;;1.00;99.90;;;;;;4962083;28;20145;-75
2022/04/17 02:06:33;;;;;;;26.98;24.13;;;0.90;99.90;;;;;;4975645;28;20046;-75
2022/04/17 02:09:01;;;;;;;24.85;22.00;;;0.90;99.90;;;;;;4966277;28;20533;-75
2022/04/17 02:11:27;;;;;;;23.98;21.55;;;0.90;99.90;;;;;;4950685;28;20050;-75
2022/04/17 02:13:57;;;;;;;24.17;21.80;;;0.80;99.90;;;;;;4985404;28;20057;-75
2022/04/17 02:16:24;;;;;;;25.85;22.77;;;0.80;99.90;;;;;;4966081;28;20070;-75
2022/04/17 02:18:52;;;;;;;24.25;22.08;;;0.80;99.90;;;;;;4949366;28;20065;-75
2022/04/17 02:21:19;;;;;;;27.20;23.73;;;0.80;99.90;;;;;;4965866;28;20533;-75
2022/04/17 02:23:46;;;;;;;24.67;22.17;;;0.90;99.90;;;;;;4950857;28;20558;-75
2022/04/17 02:26:16;;;;;;;27.20;24.40;;;0.90;99.90;;;;;;4984050;28;20050;-75
2022/04/17 02:28:44;;;;;;;25.63;23.02;;;1.20;99.90;;;;;;4982669;28;20062;-75
2022/04/17 02:31:11;;;;;;;27.48;24.10;;;1.30;99.90;;;;;;4965553;28;20042;-75
2022/04/17 02:33:38;;;;;;;29.17;23.95;;;1.20;99.90;;;;;;4983601;28;20042;-75
2022/04/17 02:36:06;;;;;;;30.15;25.35;;;1.20;99.90;;;;;;4966556;28;20047;-75
2022/04/17 02:38:33;;;;;;;30.10;26.15;;;1.30;99.90;;;;;;4969961;28;20129;-75
2022/04/17 02:41:01;;;;;;;27.33;24.20;;;1.30;99.90;;;;;;4969855;28;20054;-75
2022/04/17 02:43:28;;;;;;;26.00;23.50;;;1.20;99.90;;;;;;4969439;28;20837;-75
2022/04/17 02:45:55;;;;;;;27.63;24.85;;;1.10;99.90;;;;;;4952574;28;20053;-75
2022/04/17 02:48:22;;;;;;;31.58;24.52;;;1.00;99.90;;;;;;4969344;28;20044;-75
2022/04/17 02:50:49;;;;;;;27.73;25.08;;;1.10;99.90;;;;;;4969668;28;20050;-75
2022/04/17 02:53:16;;;;;;;28.98;25.45;;;1.00;99.90;;;;;;4970975;28;20447;-75
2022/04/17 02:55:44;;;;;;;29.02;25.77;;;1.00;99.90;;;;;;4969791;28;20149;-75
2022/04/17 02:58:11;;;;;;;28.45;25.60;;;1.20;99.90;;;;;;4984334;28;20577;-75
2022/04/17 03:06:11;;;;;;;30.70;26.95;;;1.10;99.90;;;;;;4986712;28;20053;-75
2022/04/17 03:08:39;;;;;;;30.17;26.92;;;1.10;99.90;;;;;;4953695;28;20044;-75
2022/04/17 03:11:06;;;;;;;29.05;26.10;;;1.00;99.90;;;;;;4968750;28;20766;-75
2022/04/17 03:13:33;;;;;;;30.33;26.92;;;1.20;99.90;;;;;;4954159;28;20050;-75
2022/04/17 03:16:00;;;;;;;32.58;27.08;;;1.40;99.90;;;;;;4951412;28;20469;-75
2022/04/17 03:18:27;;;;;;;28.02;25.42;;;1.60;99.90;;;;;;4969325;28;20503;-75
2022/04/17 03:20:54;;;;;;;28.23;25.30;;;1.60;99.90;;;;;;4952655;28;20164;-75
2022/04/17 03:23:21;;;;;;;28.80;24.77;;;1.60;99.90;;;;;;4953521;28;20161;-75
2022/04/17 03:25:47;;;;;;;28.80;25.98;;;1.60;99.90;;;;;;4953205;28;20112;-75
2022/04/17 03:28:15;;;;;;;28.42;25.42;;;1.50;99.90;;;;;;4969160;28;20074;-75
2022/04/17 03:30:41;;;;;;;29.23;26.17;;;1.50;99.90;;;;;;4968716;28;20112;-75
2022/04/17 03:33:08;;;;;;;27.58;24.67;;;1.40;99.90;;;;;;4984972;28;20388;-75
2022/04/17 03:35:35;;;;;;;28.25;24.80;;;1.40;99.90;;;;;;4973631;28;20046;-75
2022/04/17 03:38:02;;;;;;;29.27;25.75;;;1.20;99.90;;;;;;4969514;28;20058;-75
2022/04/17 03:40:28;;;;;;;29.15;26.25;;;1.00;99.90;;;;;;4951715;28;20775;-75
2022/04/17 03:42:57;;;;;;;28.50;24.75;;;0.90;99.90;;;;;;4968304;28;20160;-76
2022/04/17 03:45:24;;;;;;;28.58;25.88;;;0.90;99.90;;;;;;4967270;28;20058;-76
2022/04/17 03:47:51;;;;;;;29.42;26.45;;;0.80;99.90;;;;;;4952580;28;20125;-76
2022/04/17 03:50:18;;;;;;;31.73;27.85;;;0.70;99.90;;;;;;4985223;28;20084;-76
2022/04/17 03:52:47;;;;;;;29.05;25.95;;;0.70;99.90;;;;;;4968927;28;20051;-75
2022/04/17 03:55:14;;;;;;;30.00;26.88;;;0.70;99.90;;;;;;4968131;28;20050;-75
2022/04/17 03:57:42;;;;;;;29.23;26.15;;;0.80;99.90;;;;;;4986536;28;20050;-75
2022/04/17 04:00:11;;;;;;;28.13;25.27;;;0.80;99.90;;;;;;4951842;28;20062;-77
2022/04/17 04:02:43;;;;;;;28.25;25.35;;;0.80;99.90;;;;;;4964503;28;20644;-76
2022/04/17 04:05:11;;;;;;;25.60;23.08;;;0.90;99.90;;;;;;4965867;28;20047;-75
2022/04/17 04:07:39;;;;;;;25.70;23.15;;;0.80;99.90;;;;;;4952256;28;20309;-75
2022/04/17 04:10:07;;;;;;;28.50;24.67;;;0.70;99.90;;;;;;4966720;28;20684;-75
2022/04/17 04:12:35;;;;;;;28.52;25.38;;;0.70;99.90;;;;;;4968221;28;20125;-75
2022/04/17 04:15:03;;;;;;;27.08;24.25;;;0.60;99.90;;;;;;4965186;28;20094;-75
2022/04/17 04:17:30;;;;;;;26.95;24.25;;;0.60;99.90;;;;;;4967781;28;20555;-76
2022/04/17 04:19:57;;;;;;;27.80;24.95;;;0.70;99.90;;;;;;4952325;28;20086;-75
2022/04/17 04:22:24;;;;;;;28.15;25.27;;;0.60;99.90;;;;;;4967605;28;20062;-75
2022/04/17 04:24:50;;;;;;;42.22;26.35;;;0.70;99.90;;;;;;4968249;28;20053;-76
2022/04/17 04:30:03;;;;;;;;;;;0.80;99.90;;;;;;4984199;28;20491;-76
2022/04/17 04:32:29;;;;;;;28.80;24.35;;;0.90;99.90;;;;;;4984480;28;19968;-75
2022/04/17 04:35:04;;;;;;;27.25;24.30;;;0.80;99.90;;;;;;4951668;28;20078;-75
2022/04/17 04:37:31;;;;;;;28.65;25.58;;;1.00;99.90;;;;;;4951599;28;20046;-75
2022/04/17 04:39:58;;;;;;;29.05;26.25;;;1.00;99.90;;;;;;4953440;28;20077;-75
2022/04/17 04:42:25;;;;;;;28.63;25.67;;;1.00;99.90;;;;;;4963429;28;20047;-75
2022/04/17 04:46:06;;;;;;;30.17;26.95;;;1.00;99.90;;;;;;4966063;28;20154;-75
2022/04/17 04:47:40;;;;;;;28.05;25.25;;;1.10;99.90;;;;;;4984127;28;20051;-75
2022/04/17 04:50:07;;;;;;;40.03;33.45;;;1.10;99.90;;;;;;4963589;28;20074;-75
2022/04/17 04:52:35;;;;;;;38.03;33.92;;;1.10;99.90;;;;;;4971989;28;20062;-75
2022/04/17 04:55:04;;;;;;;39.28;34.22;;;1.10;99.90;;;;;;4950985;28;20046;-76
2022/04/17 04:57:30;;;;;;;36.53;32.60;;;1.10;99.90;;;;;;4963075;28;20567;-75
2022/04/17 04:59:57;;;;;;;35.25;31.48;;;1.40;99.90;;;;;;4980460;28;20050;-75
2022/04/17 05:02:24;;;;;;;32.25;29.05;;;1.40;99.90;;;;;;4965533;28;20593;-77
2022/04/17 05:04:50;;;;;;;33.28;29.92;;;1.40;99.90;;;;;;4983069;28;20146;-75
2022/04/17 05:07:17;;;;;;;31.25;28.05;;;1.50;99.90;;;;;;4984006;28;20046;-75
2022/04/17 05:09:44;;;;;;;31.45;28.45;;;1.60;99.90;;;;;;4950592;28;20428;-75
2022/04/17 05:12:11;;;;;;;32.33;29.02;;;1.70;99.90;;;;;;4966261;28;20038;-75
2022/04/17 05:14:41;;;;;;;32.22;29.08;;;1.80;99.90;;;;;;4965767;28;20069;-75
2022/04/17 05:17:08;;;;;;;30.90;27.92;;;1.80;99.90;;;;;;4964687;28;20046;-76
2022/04/17 05:19:35;;;;;;;30.92;28.10;;;1.80;99.90;;;;;;4950114;28;20089;-76
2022/04/17 05:22:02;;;;;;;31.10;28.10;;;1.90;99.90;;;;;;4949686;28;20467;-75
2022/04/17 05:24:30;;;;;;;30.00;27.17;;;2.20;99.90;;;;;;4966924;28;20058;-75
2022/04/17 05:26:56;;;;;;;30.20;27.33;;;2.50;99.90;;;;;;4957727;28;20039;-75
2022/04/17 05:29:23;;;;;;;31.25;28.23;;;2.60;99.90;;;;;;4961108;28;20077;-76
2022/04/17 05:31:50;;;;;;;31.73;28.65;;;2.70;99.90;;;;;;4968211;28;20042;-76
2022/04/17 05:34:17;;;;;;;31.95;28.60;;;2.80;99.90;;;;;;4965624;28;20046;-75
2022/04/17 05:36:44;;;;;;;32.85;29.90;;;3.00;99.90;;;;;;4962723;28;20034;-75
2022/04/17 05:39:11;;;;;;;31.88;29.08;;;3.20;99.90;;;;;;4965870;28;20113;-76
2022/04/17 05:41:41;;;;;;;31.30;28.50;;;3.30;99.90;;;;;;4964794;28;20050;-77
2022/04/17 05:44:09;;;;;;;32.40;29.60;;;3.40;99.90;;;;;;4951232;28;20678;-75
2022/04/17 05:46:36;;;;;;;33.42;30.52;;;3.60;99.90;;;;;;4965771;28;20138;-76
2022/04/17 05:49:05;;;;;;;31.98;29.23;;;3.70;99.90;;;;;;4953950;28;20053;-76
2022/04/17 05:51:33;;;;;;;33.58;30.73;;;3.90;99.90;;;;;;4985229;28;20042;-75
2022/04/17 05:54:05;;;;;;;30.77;28.30;;;4.20;99.90;;;;;;5002893;28;20566;-75
2022/04/17 05:56:32;;;;;;;31.70;29.35;;;4.40;99.90;;;;;;4981427;28;20100;-75
2022/04/17 05:59:00;;;;;;;32.13;29.48;;;4.70;99.90;;;;;;4982688;28;20428;-76
2022/04/17 06:01:27;;;;;;;32.13;28.60;;;4.80;99.90;;;;;;4965380;28;20054;-76
2022/04/17 06:03:54;;;;;;;32.45;29.65;;;4.90;99.90;;;;;;4980766;28;20042;-76
2022/04/17 06:06:20;;;;;;;32.13;29.05;;;5.10;99.90;;;;;;4974231;28;20046;-75
2022/04/17 06:08:47;;;;;;;31.10;28.30;;;5.20;99.90;;;;;;4965954;28;20086;-75
2022/04/17 06:11:14;;;;;;;29.60;27.35;;;5.30;99.90;;;;;;4949694;28;20547;-75
2022/04/17 06:13:41;;;;;;;30.45;27.88;;;5.40;99.90;;;;;;4968534;28;20046;-75
2022/04/17 06:16:08;;;;;;;29.40;26.90;;;5.50;99.90;;;;;;4950301;28;20064;-75
2022/04/17 06:18:34;;;;;;;28.40;26.20;;;5.60;99.90;;;;;;4966160;28;20078;-74
2022/04/17 06:21:02;;;;;;;29.83;27.02;;;5.70;99.90;;;;;;4968539;28;20100;-75
2022/04/17 06:23:28;;;;;;;28.40;26.40;;;5.80;99.90;;;;;;4969640;28;20054;-75
2022/04/17 06:25:55;;;;;;;28.80;26.35;;;6.00;99.90;;;;;;4952612;28;20524;-76
2022/04/17 06:28:22;;;;;;;27.85;25.63;;;6.10;99.90;;;;;;4985497;28;20082;-75
2022/04/17 06:30:49;;;;;;;28.48;26.23;;;6.20;99.90;;;;;;4984734;28;20282;-77
2022/04/17 06:33:16;;;;;;;28.95;26.52;;;6.40;99.90;;;;;;4984893;28;20057;-76
2022/04/17 06:35:42;;;;;;;28.08;25.85;;;6.40;99.90;;;;;;4984976;28;20066;-75
2022/04/17 06:38:10;;;;;;;29.20;26.75;;;6.60;99.90;;;;;;4953380;28;20050;-75
2022/04/17 06:40:38;;;;;;;30.42;27.88;;;6.70;99.90;;;;;;4952081;28;20060;-76
2022/04/17 06:43:08;;;;;;;28.73;26.52;;;6.90;99.90;;;;;;4951490;28;20054;-76
2022/04/17 06:45:36;;;;;;;29.42;27.23;;;7.00;99.90;;;;;;4960008;28;20536;-76
2022/04/17 06:48:23;;;;;;;27.55;25.60;;;7.40;99.90;;;;;;4985815;28;20054;-75
2022/04/17 06:50:51;;;;;;;27.27;25.40;;;7.70;99.90;;;;;;4984281;28;20054;-76
2022/04/17 06:53:18;;;;;;;28.05;25.98;;;8.10;99.90;;;;;;4952543;28;20421;-76
2022/04/17 06:55:47;;;;;;;27.35;25.23;;;8.40;99.90;;;;;;4968764;28;20622;-75
2022/04/17 06:58:14;;;;;;;27.00;25.15;;;8.60;99.90;;;;;;4969301;28;20046;-76
2022/04/17 07:00:41;;;;;;;26.42;24.48;;;8.80;99.90;;;;;;4986254;28;20074;-76
2022/04/17 07:03:08;;;;;;;26.38;24.35;;;8.90;99.90;;;;;;4985537;28;20054;-76
2022/04/17 07:05:34;;;;;;;26.63;24.73;;;9.00;99.90;;;;;;4984559;28;20054;-75
2022/04/17 07:08:04;;;;;;;28.67;26.88;;;9.00;99.90;;;;;;4953303;28;20109;-76
2022/04/17 07:10:33;;;;;;;29.92;27.83;;;9.10;99.90;;;;;;4968387;28;20199;-77
2022/04/17 07:13:00;;;;;;;28.42;26.50;;;9.20;99.90;;;;;;4968780;28;20470;-75
2022/04/17 07:15:27;;;;;;;29.10;27.25;;;9.30;99.90;;;;;;4968645;28;20038;-76
2022/04/17 07:17:54;;;;;;;27.33;25.33;;;9.50;99.90;;;;;;4954674;28;20404;-76
2022/04/17 07:20:22;;;;;;;27.02;25.38;;;9.30;99.90;;;;;;4969974;28;20054;-76
2022/04/17 07:22:50;;;;;;;28.42;26.52;;;9.30;99.90;;;;;;4969675;28;20113;-76
2022/04/17 07:25:19;;;;;;;27.23;25.50;;;9.50;99.90;;;;;;4969460;28;20400;-77
2022/04/17 07:27:48;;;;;;;26.98;25.30;;;9.70;99.90;;;;;;4982568;28;20404;-76
2022/04/17 07:30:17;;;;;;;27.55;25.80;;;9.70;99.90;;;;;;4986274;28;20117;-75
2022/04/17 07:32:48;;;;;;;26.85;25.25;;;9.80;99.90;;;;;;4971099;28;20081;-76
2022/04/17 07:35:17;;;;;;;28.65;26.48;;;10.00;99.90;;;;;;4988069;28;20471;-76
2022/04/17 07:37:51;;;;;;;28.25;26.30;;;10.10;99.90;;;;;;4953756;28;20501;-76
2022/04/17 07:40:21;;;;;;;27.23;25.73;;;10.80;99.90;;;;;;4970272;28;20108;-76
2022/04/17 07:42:49;;;;;;;28.85;27.15;;;11.00;99.90;;;;;;4971123;28;20412;-76
2022/04/17 07:45:17;;;;;;;28.25;26.55;;;11.00;99.90;;;;;;4970102;28;20062;-76
2022/04/17 07:47:45;;;;;;;29.33;27.50;;;10.80;99.90;;;;;;4969901;28;20657;-76
2022/04/17 07:50:15;;;;;;;30.15;28.38;;;10.80;99.90;;;;;;4966864;28;20107;-76
2022/04/17 07:52:43;;;;;;;30.15;28.35;;;10.90;99.90;;;;;;4972040;28;20065;-76
2022/04/17 07:55:12;;;;;;;29.98;28.33;;;10.80;99.90;;;;;;4954278;28;20108;-76
2022/04/17 08:00:28;;;;;;;29.77;28.02;;;10.90;99.90;;;;;;4987896;28;20351;-75
2022/04/17 08:03:54;;;;;;;29.52;27.95;;;11.10;99.90;;;;;;4989369;28;20055;-76
2022/04/17 08:05:55;;;;;;;30.10;28.40;;;11.30;99.90;;;;;;4984891;28;20034;-76
2022/04/17 08:08:22;;;;;;;29.85;28.15;;;11.30;99.90;;;;;;4956184;28;20437;-76
2022/04/17 08:10:49;;;;;;;31.13;29.33;;;11.20;99.90;;;;;;4975875;28;20050;-76
2022/04/17 08:13:16;;;;;;;29.77;27.98;;;11.20;99.90;;;;;;4976302;28;20578;-76
2022/04/17 08:15:43;;;;;;;29.67;27.70;;;11.20;99.90;;;;;;4984323;28;20549;-76
2022/04/17 08:18:10;;;;;;;29.67;27.98;;;11.40;99.90;;;;;;4971290;28;20100;-76
2022/04/17 08:20:37;;;;;;;30.27;28.40;;;11.20;99.90;;;;;;4957709;28;20065;-77
2022/04/17 08:23:04;;;;;;;29.85;28.15;;;11.30;99.90;;;;;;4966607;28;20058;-76
2022/04/17 08:25:32;;;;;;;27.77;26.17;;;11.30;99.90;;;;;;4965516;28;20070;-77
2022/04/17 08:27:59;;;;;;;29.20;27.30;;;11.50;99.90;;;;;;4984918;28;20057;-76
2022/04/17 08:30:29;;;;;;;28.58;27.08;;;11.70;99.90;;;;;;4981418;28;20089;-76
2022/04/17 08:32:58;;;;;;;28.15;26.38;;;11.90;99.90;;;;;;4952963;28;20420;-75
2022/04/17 08:35:25;;;;;;;29.70;27.90;;;12.00;99.90;;;;;;4968009;28;20062;-76
2022/04/17 08:37:52;;;;;;;31.35;29.42;;;12.00;99.90;;;;;;4968373;28;20050;-76
2022/04/17 08:40:20;;;;;;;31.77;29.88;;;11.90;99.90;;;;;;4955466;28;20062;-75
2022/04/17 08:42:48;;;;;;;30.92;29.15;;;11.90;99.90;;;;;;4986419;28;20066;-76
2022/04/17 08:45:15;;;;;;;30.77;29.17;;;11.90;99.90;;;;;;4985223;28;20571;-76
2022/04/17 08:47:43;;;;;;;31.50;29.73;;;11.80;99.90;;;;;;4967522;28;20109;-76
2022/04/17 08:50:18;;;;;;;30.52;28.83;;;11.80;99.90;;;;;;4985117;28;20046;-76
2022/04/17 08:52:47;;;;;;;29.77;28.05;;;11.70;99.90;;;;;;4967298;28;20046;-76
2022/04/17 08:55:14;;;;;;;29.02;27.33;;;11.50;99.90;;;;;;4967128;28;20074;-76
2022/04/17 08:57:41;;;;;;;28.75;27.13;;;11.60;99.90;;;;;;4979579;28;20831;-76
2022/04/17 09:00:16;;;;;;;30.23;28.35;;;11.60;99.90;;;;;;4980076;28;20125;-76
2022/04/17 09:02:43;;;;;;;28.73;27.23;;;11.70;99.90;;;;;;4982410;28;20074;-76
2022/04/17 09:05:12;;;;;;;29.67;28.08;;;11.80;99.90;;;;;;4953363;28;20500;-77
2022/04/17 09:07:40;;;;;;;31.30;29.40;;;11.90;99.90;;;;;;4947978;28;20116;-76
2022/04/17 09:10:08;;;;;;;30.50;28.63;;;11.90;99.90;;;;;;4967622;28;20057;-77
2022/04/17 09:12:35;;;;;;;29.10;27.30;;;11.80;99.90;;;;;;4966292;28;20046;-76
2022/04/17 09:15:02;;;;;;;31.05;29.35;;;11.70;99.90;;;;;;4965903;28;20038;-76
2022/04/17 09:17:33;;;;;;;30.60;28.63;;;11.90;99.90;;;;;;4949431;28;20058;-76
2022/04/17 09:20:03;;;;;;;32.90;30.92;;;11.90;99.90;;;;;;4966395;28;20050;-77
2022/04/17 09:22:46;;;;;;;32.13;30.33;;;12.20;99.90;;;;;;4966955;28;20104;-76
2022/04/17 09:25:14;;;;;;;31.80;29.73;;;11.90;99.90;;;;;;4950896;28;20058;-76
2022/04/17 09:28:06;;;;;;;33.38;31.33;;;12.10;99.90;;;;;;4962201;28;20188;-76
2022/04/17 09:30:46;;;;;;;29.60;27.90;;;12.60;99.90;;;;;;4961307;28;20042;-75
2022/04/17 09:33:14;;;;;;;31.60;29.83;;;12.60;99.60;;;;;;4951444;28;20051;-76
2022/04/17 09:35:53;;;;;;;30.15;28.13;;;12.90;99.90;;;;;;4973469;28;20043;-76
2022/04/17 09:38:26;;;;;;;31.55;29.75;;;13.00;99.90;;;;;;4951980;28;20108;-76
2022/04/17 09:41:02;;;;;;;29.45;27.70;;;13.20;99.90;;;;;;4966786;28;20137;-75
2022/04/17 09:43:34;;;;;;;30.75;29.10;;;13.30;98.00;;;;;;4967901;28;20069;-76
2022/04/17 09:46:03;;;;;;;30.70;29.00;;;12.80;98.30;;;;;;4965642;28;20054;-75
2022/04/17 09:48:32;;;;;;;30.92;29.13;;;12.70;99.90;;;;;;4966583;28;20061;-75
2022/04/17 09:51:00;;;;;;;30.50;28.90;;;12.80;98.70;;;;;;4984234;28;20050;-76
2022/04/17 09:53:37;;;;;;;29.95;28.30;;;12.90;99.80;;;;;;4967747;28;20084;-75
2022/04/17 09:56:11;;;;;;;31.63;29.85;;;13.30;99.90;;;;;;4968282;28;20057;-76
2022/04/17 09:58:45;;;;;;;28.20;26.60;;;13.50;98.40;;;;;;4965260;28;20081;-75
2022/04/17 10:01:18;;;;;;;29.38;27.77;;;13.30;97.60;;;;;;4982787;28;20122;-75
2022/04/17 10:03:46;;;;;;;26.98;25.63;;;12.90;97.60;;;;;;4982869;28;20085;-76
2022/04/17 10:06:13;;;;;;;30.17;28.50;;;12.60;94.60;;;;;;4950138;28;20825;-76
2022/04/17 10:08:43;;;;;;;28.55;27.02;;;12.40;96.80;;;;;;4966918;28;20553;-76
2022/04/17 10:11:10;;;;;;;29.38;27.70;;;12.50;98.00;;;;;;4950480;28;20447;-75
2022/04/17 10:13:38;;;;;;;28.90;27.13;;;12.50;96.50;;;;;;4965536;28;20116;-75
2022/04/17 10:16:08;;;;;;;30.25;28.58;;;12.70;95.20;;;;;;4949330;28;20062;-74
2022/04/17 10:18:41;;;;;;;31.48;29.70;;;12.80;95.80;;;;;;4946657;28;20153;-75
2022/04/17 10:21:09;;;;;;;30.63;28.92;;;12.90;95.10;;;;;;4930688;28;20046;-75
2022/04/17 10:23:42;;;;;;;28.88;27.38;;;12.80;95.70;;;;;;4948433;28;20074;-75
2022/04/17 10:26:12;;;;;;;30.10;28.50;;;12.90;96.20;;;;;;4953613;28;20050;-76
2022/04/17 10:28:44;;;;;;;30.20;28.60;;;13.10;95.70;;;;;;4982420;28;20089;-76
2022/04/17 10:31:20;;;;;;;30.77;29.10;;;13.40;95.80;;;;;;4981646;28;20543;-76
2022/04/17 10:34:20;;;;;;;31.50;29.85;;;13.30;94.50;;;;;;4980069;28;20476;-76
2022/04/17 10:37:36;;;;;;;30.58;28.90;;;13.50;93.40;;;;;;4964822;28;20504;-76
2022/04/17 10:40:04;;;;;;;30.85;29.23;;;13.80;91.50;;;;;;4949751;28;20046;-76
2022/04/17 10:42:35;;;;;;;30.58;28.98;;;13.80;91.60;;;;;;4966497;28;20101;-75
2022/04/17 10:45:07;;;;;;;31.23;29.60;;;13.60;92.80;;;;;;4966403;28;20078;-76
2022/04/17 10:47:34;;;;;;;31.60;29.90;;;13.70;92.70;;;;;;4950858;28;20125;-76
2022/04/17 10:50:07;;;;;;;32.50;30.70;;;13.70;92.60;;;;;;4950292;28;20066;-75
2022/04/17 10:52:34;;;;;;;31.33;29.73;;;14.00;91.30;;;;;;4966268;28;20051;-75
2022/04/17 10:55:11;;;;;;;31.85;30.05;;;14.10;92.80;;;;;;4984348;28;20516;-75
2022/04/17 10:57:45;;;;;;;35.30;33.40;;;13.90;90.60;;;;;;4959441;28;20822;-75
2022/04/17 11:00:28;;;;;;;31.65;30.00;;;14.00;90.90;;;;;;4979881;28;20240;-75
2022/04/17 11:03:23;;;;;;;33.60;31.77;;;13.90;92.60;;;;;;4985629;28;20917;-77
2022/04/17 11:08:48;;;;;;;33.60;31.92;;;13.30;93.30;;;;;;4969211;28;20117;-76
2022/04/17 11:11:15;;;;;;;33.45;31.65;;;13.60;94.60;;;;;;4969181;28;20050;-76
2022/04/17 11:14:07;;;;;;;31.63;29.95;;;13.70;94.70;;;;;;4953793;28;20671;-76
2022/04/17 11:16:39;;;;;;;30.95;28.85;;;13.90;94.40;;;;;;4969283;28;20050;-76
2022/04/17 11:19:11;;;;;;;31.33;29.55;;;13.80;93.30;;;;;;4986775;28;20050;-75
2022/04/17 11:21:45;;;;;;;33.55;31.92;;;13.90;93.60;;;;;;4987039;28;20074;-76
2022/04/17 11:24:12;;;;;;;35.67;33.75;;;13.80;93.30;;;;;;4970012;28;20440;-76
2022/04/17 11:27:06;;;;;;;33.53;31.73;;;14.00;94.20;;;;;;4975429;28;20125;-76
2022/04/17 11:29:50;;;;;;;32.17;30.38;;;14.40;94.70;;;;;;4976936;28;20856;-75
2022/04/17 11:32:16;;;;;;;31.95;30.35;;;15.10;94.70;;;;;;4988741;28;20137;-75
2022/04/17 11:34:46;;;;;;;31.90;30.15;;;14.60;91.90;;;;;;4978927;28;20046;-75
2022/04/17 11:37:16;;;;;;;30.63;28.95;;;14.80;92.90;;;;;;4962083;28;20504;-76
2022/04/17 11:39:44;;;;;;;43.17;40.42;;;14.90;92.80;;;;;;4986885;28;20050;-76
2022/04/17 11:42:11;;;;;;;33.38;31.67;;;14.90;90.80;;;;;;4952573;28;20134;-76
2022/04/17 11:44:42;;;;;;;33.45;31.73;;;14.90;91.50;;;;;;4952821;28;20528;-76
2022/04/17 11:47:17;;;;;;;35.08;33.38;;;14.80;91.60;;;;;;4969402;28;20105;-76
2022/04/17 11:49:47;;;;;;;33.90;32.13;;;15.00;92.40;;;;;;4978206;28;20050;-76
2022/04/17 11:52:18;;;;;;;36.30;34.22;;;15.20;92.00;;;;;;4988337;28;20054;-76
2022/04/17 11:54:46;;;;;;;33.28;31.48;;;15.20;90.70;;;;;;4974003;28;20692;-76
2022/04/17 11:57:14;;;;;;;33.88;32.17;;;15.20;90.20;;;;;;4977533;28;20053;-77
2022/04/17 11:59:49;;;;;;;35.78;33.88;;;15.00;90.10;;;;;;4985038;28;20097;-76
2022/04/17 12:02:20;;;;;;;34.83;32.92;;;15.00;91.00;;;;;;4983882;28;20046;-76
2022/04/17 12:04:49;;;;;;;32.70;30.75;;;15.10;90.20;;;;;;4977512;28;20133;-76
2022/04/17 12:07:26;;;;;;;36.92;35.03;;;14.70;87.30;;;;;;4949539;28;20620;-75
2022/04/17 12:10:04;;;;;;;35.55;33.55;;;14.60;84.70;;;;;;4981864;28;20090;-76
2022/04/17 12:12:37;;;;;;;35.50;33.83;;;14.70;83.90;;;;;;4968012;28;20042;-76
2022/04/17 12:15:09;;;;;;;33.45;31.83;;;14.80;84.60;;;;;;4983934;28;20136;-76
2022/04/17 12:17:37;;;;;;;36.55;34.42;;;14.70;84.10;;;;;;4985470;28;20105;-76
2022/04/17 12:20:08;;;;;;;35.45;33.65;;;14.60;79.90;;;;;;4983822;28;20080;-76
2022/04/17 12:22:37;;;;;;;32.70;30.80;;;14.80;80.60;;;;;;4985977;28;20053;-76
2022/04/17 12:25:14;;;;;;;35.75;34.05;;;14.70;80.80;;;;;;4984519;28;20093;-75
2022/04/17 12:27:41;;;;;;;36.50;34.60;;;14.80;80.70;;;;;;4985333;28;20114;-76
2022/04/17 12:30:08;;;;;;;37.00;35.00;;;14.80;81.60;;;;;;4962426;28;20109;-76
2022/04/17 12:32:44;;;;;;;38.30;36.05;;;14.80;78.60;;;;;;4952171;28;20450;-74
2022/04/17 12:35:14;;;;;;;35.63;33.78;;;14.90;80.90;;;;;;4972661;28;20131;-74
2022/04/17 12:37:41;;;;;;;38.08;36.08;;;14.70;79.40;;;;;;4967694;28;20062;-75
2022/04/17 12:40:13;;;;;;;37.28;35.28;;;14.90;81.60;;;;;;4946391;28;20528;-75
2022/04/17 12:42:40;;;;;;;36.80;34.80;;;15.20;80.30;;;;;;4948422;28;20063;-74
2022/04/17 12:45:09;;;;;;;39.05;36.92;;;14.90;81.60;;;;;;4947971;28;20059;-75
2022/04/17 12:47:38;;;;;;;36.70;34.78;;;14.90;77.50;;;;;;4948301;28;20043;-74
2022/04/17 12:50:11;;;;;;;36.65;34.67;;;15.10;81.20;;;;;;4947437;28;20658;-75
2022/04/17 12:52:40;;;;;;;;;;;15.30;81.50;;;;;;4949397;28;20055;-74
2022/04/17 12:55:12;;;;;;;35.58;33.50;;;15.00;83.10;;;;;;4945059;28;19972;-74
2022/04/17 12:57:39;;;;;;;37.92;35.72;;;15.00;85.20;;;;;;4963546;28;20224;-75
2022/04/17 13:00:16;;;;;;;36.33;34.33;;;15.20;84.40;;;;;;4981309;28;20562;-74